createdAt,value
2023-03-28T00:00:28.845Z,62.13
2023-03-28T00:02:55.500Z,61.46
2023-03-28T00:05:24.152Z,60.75
2023-03-28T00:07:51.205Z,59.39
2023-03-28T00:10:17.736Z,60.28
2023-03-28T00:12:44.354Z,60.04
2023-03-28T00:15:11.093Z,59.40
2023-03-28T00:17:37.619Z,59.56
2023-03-28T00:20:06.322Z,60.03
2023-03-28T00:22:33.915Z,59.59
2023-03-28T00:25:00.419Z,60.21
2023-03-28T00:27:27.078Z,59.22
2023-03-28T00:29:53.556Z,60.38
2023-03-28T00:32:20.362Z,58.78
2023-03-28T00:34:46.873Z,59.04
2023-03-28T00:37:17.182Z,59.58
2023-03-28T00:39:49.925Z,59.21
2023-03-28T00:42:17.832Z,59.21
2023-03-28T00:44:52.710Z,59.60
2023-03-28T00:47:30.692Z,59.62
2023-03-28T00:50:03.479Z,59.20
2023-03-28T00:52:32.764Z,59.48
2023-03-28T00:54:59.909Z,59.13
2023-03-28T00:57:28.062Z,57.89
2023-03-28T00:59:54.965Z,58.32
2023-03-28T01:02:21.666Z,58.00
2023-03-28T01:04:53.209Z,58.09
2023-03-28T01:07:22.372Z,57.92
2023-03-28T01:09:49.366Z,57.47
2023-03-28T01:12:16.510Z,58.14
2023-03-28T01:14:43.837Z,60.01
2023-03-28T01:17:10.872Z,61.31
2023-03-28T01:19:37.310Z,61.29
2023-03-28T01:22:13.885Z,62.23
2023-03-28T01:24:52.530Z,61.79
2023-03-28T01:27:22.199Z,61.58
2023-03-28T01:30:01.667Z,62.65
2023-03-28T01:32:57.443Z,62.05
2023-03-28T01:35:42.801Z,62.51
2023-03-28T01:38:12.405Z,63.35
2023-03-28T01:40:46.149Z,63.75
2023-03-28T01:43:20.317Z,64.44
2023-03-28T01:46:05.840Z,65.72
2023-03-28T01:48:37.049Z,66.61
2023-03-28T01:51:23.010Z,67.79
2023-03-28T01:54:08.441Z,68.16
2023-03-28T01:56:55.253Z,69.89
2023-03-28T01:59:47.966Z,71.38
2023-03-28T02:02:27.484Z,72.33
2023-03-28T02:05:00.836Z,72.92
2023-03-28T02:07:28.915Z,74.78
2023-03-28T02:10:08.586Z,76.34
2023-03-28T02:12:59.200Z,78.61
2023-03-28T02:16:02.659Z,79.60
2023-03-28T02:18:56.893Z,81.05
2023-03-28T02:21:59.920Z,80.46
2023-03-28T02:24:56.369Z,82.38
2023-03-28T02:27:47.904Z,82.88
2023-03-28T02:30:40.404Z,82.45
2023-03-28T02:33:10.425Z,83.00
2023-03-28T02:35:48.574Z,83.77
2023-03-28T02:38:26.863Z,83.92
2023-03-28T02:40:58.702Z,84.50
2023-03-28T02:43:36.766Z,83.79
2023-03-28T02:48:51.345Z,83.33
2023-03-28T02:51:36.845Z,83.94
2023-03-28T02:54:09.245Z,83.63
2023-03-28T02:57:01.424Z,84.24
2023-03-28T02:59:38.229Z,84.63
2023-03-28T03:02:04.882Z,84.88
2023-03-28T03:04:31.560Z,84.84
2023-03-28T03:07:02.005Z,84.95
2023-03-28T03:09:30.624Z,85.43
2023-03-28T03:11:57.098Z,85.70
2023-03-28T03:14:23.660Z,85.62
2023-03-28T03:16:52.508Z,86.21
2023-03-28T03:19:19.442Z,86.56
2023-03-28T03:21:46.593Z,87.09
2023-03-28T03:24:14.340Z,87.49
2023-03-28T03:26:44.655Z,87.77
2023-03-28T03:29:15.728Z,86.86
2023-03-28T03:31:42.572Z,87.32
2023-03-28T03:34:38.105Z,87.14
2023-03-28T03:37:04.662Z,88.10
2023-03-28T03:39:31.149Z,87.80
2023-03-28T03:41:57.669Z,87.26
2023-03-28T03:44:24.246Z,87.81
2023-03-28T03:46:53.205Z,87.72
2023-03-28T03:49:19.706Z,87.20
2023-03-28T03:51:46.465Z,86.76
2023-03-28T03:54:16.207Z,86.29
2023-03-28T03:56:42.942Z,86.41
2023-03-28T03:59:10.493Z,85.92
2023-03-28T04:01:39.978Z,85.63
2023-03-28T04:04:27.267Z,85.36
2023-03-28T04:07:10.217Z,85.57
2023-03-28T04:09:36.984Z,85.70
2023-03-28T04:12:05.801Z,83.92
2023-03-28T04:14:42.389Z,84.46
2023-03-28T04:17:29.689Z,85.33
2023-03-28T04:19:58.333Z,85.40
2023-03-28T04:22:29.728Z,84.37
2023-03-28T04:24:57.106Z,84.32
2023-03-28T04:27:35.636Z,84.21
2023-03-28T04:30:03.275Z,83.21
2023-03-28T04:32:54.349Z,83.75
2023-03-28T04:35:25.772Z,84.53
2023-03-28T04:37:53.827Z,84.28
2023-03-28T04:40:21.728Z,83.52
2023-03-28T04:42:54.920Z,84.09
2023-03-28T04:45:32.999Z,83.64
2023-03-28T04:48:09.712Z,83.27
2023-03-28T04:50:36.301Z,83.50
2023-03-28T04:53:03.438Z,84.38
2023-03-28T04:55:31.524Z,84.83
2023-03-28T04:57:59.625Z,85.19
2023-03-28T05:00:27.288Z,85.57
2023-03-28T05:03:06.024Z,84.73
2023-03-28T05:05:46.423Z,84.02
2023-03-28T05:08:14.303Z,83.18
2023-03-28T05:10:41.160Z,82.45
2023-03-28T05:13:10.045Z,82.87
2023-03-28T05:15:46.088Z,84.27
2023-03-28T05:18:22.091Z,84.52
2023-03-28T05:20:48.565Z,83.64
2023-03-28T05:23:15.137Z,82.94
2023-03-28T05:25:49.645Z,83.03
2023-03-28T05:28:16.180Z,83.50
2023-03-28T05:30:49.404Z,83.58
2023-03-28T05:33:16.016Z,84.16
2023-03-28T05:35:43.838Z,84.17
2023-03-28T05:38:10.642Z,83.58
2023-03-28T05:40:37.476Z,83.42
2023-03-28T05:43:04.644Z,79.10
2023-03-28T05:45:32.729Z,79.21
2023-03-28T05:48:28.237Z,77.18
2023-03-28T05:50:54.695Z,78.00
2023-03-28T05:53:21.796Z,76.10
2023-03-28T05:55:49.600Z,75.50
2023-03-28T05:58:17.529Z,73.03
2023-03-28T06:00:44.640Z,67.98
2023-03-28T06:03:17.007Z,66.52
2023-03-28T06:05:45.061Z,65.22
2023-03-28T06:08:19.436Z,64.71
2023-03-28T06:10:46.604Z,62.76
2023-03-28T06:13:24.293Z,62.36
2023-03-28T06:15:51.719Z,61.03
2023-03-28T06:18:22.620Z,58.24
2023-03-28T06:20:49.894Z,58.70
2023-03-28T06:23:16.452Z,59.10
2023-03-28T06:25:43.720Z,60.01
2023-03-28T06:28:11.463Z,59.09
2023-03-28T06:30:58.034Z,57.56
2023-03-28T06:33:25.449Z,57.19
2023-03-28T06:35:52.010Z,56.69
2023-03-28T06:38:18.651Z,54.75
2023-03-28T06:40:50.242Z,55.75
2023-03-28T06:43:16.883Z,55.80
2023-03-28T06:45:46.753Z,54.42
2023-03-28T06:48:14.813Z,51.00
2023-03-28T06:51:00.567Z,46.30
2023-03-28T06:53:27.749Z,47.51
2023-03-28T06:55:54.531Z,45.46
2023-03-28T06:58:22.415Z,46.08
2023-03-28T07:00:54.984Z,42.05
2023-03-28T07:03:48.683Z,45.78
2023-03-28T07:06:20.644Z,42.36
2023-03-28T07:08:47.181Z,40.71
2023-03-28T07:11:15.952Z,38.92
2023-03-28T07:13:46.480Z,38.46
2023-03-28T07:16:14.340Z,35.85
2023-03-28T07:18:42.401Z,35.53
2023-03-28T07:21:12.740Z,34.86
2023-03-28T07:23:39.752Z,35.43
2023-03-28T07:26:07.418Z,35.63
2023-03-28T07:28:33.989Z,36.60
2023-03-28T07:31:02.626Z,34.70
2023-03-28T07:33:36.835Z,34.60
2023-03-28T07:36:11.196Z,36.30
2023-03-28T07:38:37.918Z,36.28
2023-03-28T07:41:05.454Z,35.60
2023-03-28T07:43:32.067Z,34.83
2023-03-28T07:46:02.997Z,33.68
2023-03-28T07:48:29.964Z,34.38
2023-03-28T07:50:56.521Z,31.98
2023-03-28T07:53:23.147Z,31.11
2023-03-28T07:55:54.814Z,32.11
2023-03-28T07:58:25.539Z,32.74
2023-03-28T08:00:56.255Z,31.91
2023-03-28T08:03:44.833Z,30.72
2023-03-28T08:06:24.714Z,30.57
2023-03-28T08:08:57.935Z,30.05
2023-03-28T08:11:42.276Z,29.91
2023-03-28T08:14:10.983Z,30.01
2023-03-28T08:16:37.735Z,29.20
2023-03-28T08:21:43.062Z,28.35
2023-03-28T08:24:14.083Z,29.02
2023-03-28T08:26:55.274Z,27.45
2023-03-28T08:29:23.134Z,29.45
2023-03-28T08:31:49.722Z,27.13
2023-03-28T08:34:16.301Z,25.76
2023-03-28T08:36:44.224Z,26.74
2023-03-28T08:39:24.389Z,28.38
2023-03-28T08:41:51.089Z,27.25
2023-03-28T08:44:18.128Z,27.63
2023-03-28T08:46:45.486Z,26.17
2023-03-28T08:49:15.223Z,26.89
2023-03-28T08:51:52.969Z,27.09
2023-03-28T08:54:23.002Z,25.55
2023-03-28T08:56:51.450Z,27.25
2023-03-28T08:59:20.840Z,25.81
2023-03-28T09:01:47.481Z,25.76
2023-03-28T09:04:24.200Z,26.92
2023-03-28T09:06:59.989Z,25.91
2023-03-28T09:09:45.323Z,26.09
2023-03-28T09:12:40.902Z,26.31
2023-03-28T09:15:27.789Z,25.47
2023-03-28T09:18:04.077Z,25.39
2023-03-28T09:20:30.948Z,24.75
2023-03-28T09:23:18.557Z,25.29
2023-03-28T09:26:17.597Z,24.70
2023-03-28T09:29:08.931Z,23.24
2023-03-28T09:31:46.642Z,24.99
2023-03-28T09:34:27.310Z,24.49
2023-03-28T09:37:16.531Z,23.36
2023-03-28T09:39:54.891Z,24.88
2023-03-28T09:42:36.871Z,24.08
2023-03-28T09:45:23.843Z,27.38
2023-03-28T09:48:00.226Z,25.71
2023-03-28T09:50:34.036Z,24.75
2023-03-28T09:53:02.132Z,25.33
2023-03-28T09:55:30.315Z,25.04
2023-03-28T09:58:08.441Z,25.82
2023-03-28T10:00:55.293Z,25.34
2023-03-28T10:03:51.401Z,27.01
2023-03-28T10:06:25.853Z,25.71
2023-03-28T10:08:52.430Z,23.96
2023-03-28T10:11:43.341Z,23.39
2023-03-28T10:14:27.957Z,26.96
2023-03-28T10:16:54.683Z,24.14
2023-03-28T10:19:31.606Z,25.36
2023-03-28T10:22:21.028Z,24.73
2023-03-28T10:24:51.437Z,25.63
2023-03-28T10:27:24.585Z,22.92
2023-03-28T10:29:53.454Z,23.89
2023-03-28T10:32:24.722Z,23.94
2023-03-28T10:35:26.274Z,21.95
2023-03-28T10:38:15.302Z,22.88
2023-03-28T10:41:12.193Z,23.45
2023-03-28T10:44:26.469Z,22.32
2023-03-28T10:47:01.244Z,19.71
2023-03-28T10:49:47.161Z,23.40
2023-03-28T10:52:19.507Z,19.17
2023-03-28T10:55:06.912Z,22.31
2023-03-28T10:58:00.699Z,23.19
2023-03-28T11:00:32.292Z,22.24
2023-03-28T11:03:18.889Z,23.69
2023-03-28T11:05:55.036Z,23.83
2023-03-28T11:08:36.108Z,26.06
2023-03-28T11:11:13.324Z,27.74
2023-03-28T11:14:17.505Z,29.10
2023-03-28T11:17:03.576Z,28.79
2023-03-28T11:20:05.692Z,29.15
2023-03-28T11:22:49.856Z,28.79
2023-03-28T11:25:35.775Z,28.90
2023-03-28T11:28:55.989Z,28.53
2023-03-28T11:31:29.446Z,28.93
2023-03-28T11:33:59.009Z,29.14
2023-03-28T11:36:29.456Z,27.92
2023-03-28T11:39:06.432Z,26.65
2023-03-28T11:41:36.319Z,28.45
2023-03-28T11:44:32.762Z,26.29
2023-03-28T11:47:04.548Z,24.35
2023-03-28T11:49:41.670Z,25.45
2023-03-28T11:52:28.296Z,23.98
2023-03-28T11:54:56.002Z,24.81
2023-03-28T11:57:28.858Z,26.35
2023-03-28T12:00:23.120Z,27.19
2023-03-28T12:03:16.936Z,27.05
2023-03-28T12:06:00.000Z,26.53
2023-03-28T12:08:35.044Z,27.17
2023-03-28T12:11:05.977Z,25.40
2023-03-28T12:14:08.846Z,28.84
2023-03-28T12:16:43.823Z,26.51
2023-03-28T12:19:13.727Z,27.02
2023-03-28T12:21:54.249Z,25.55
2023-03-28T12:24:35.244Z,23.69
2023-03-28T12:27:27.658Z,25.53
2023-03-28T12:29:59.133Z,27.26
2023-03-28T12:32:32.900Z,24.57
2023-03-28T12:35:19.559Z,25.25
2023-03-28T12:37:59.621Z,24.63
2023-03-28T12:40:36.312Z,25.13
2023-03-28T12:43:04.321Z,25.62
2023-03-28T12:45:32.334Z,25.18
2023-03-28T12:48:02.972Z,26.15
2023-03-28T12:50:35.469Z,23.77
2023-03-28T12:53:02.998Z,24.29
2023-03-28T12:55:44.469Z,25.56
2023-03-28T12:58:19.822Z,23.08
2023-03-28T13:00:58.277Z,22.80
2023-03-28T13:03:57.220Z,23.02
2023-03-28T13:06:42.117Z,22.82
2023-03-28T13:09:19.306Z,22.13
2023-03-28T13:11:58.611Z,24.05
2023-03-28T13:14:25.133Z,23.32
2023-03-28T13:16:51.630Z,23.50
2023-03-28T13:19:20.295Z,23.64
2023-03-28T13:21:50.315Z,22.08
2023-03-28T13:24:26.106Z,22.37
2023-03-28T13:27:05.997Z,22.31
2023-03-28T13:29:46.136Z,22.55
2023-03-28T13:32:14.740Z,21.21
2023-03-28T13:34:46.605Z,23.00
2023-03-28T13:37:22.836Z,23.44
2023-03-28T13:39:50.773Z,22.39
2023-03-28T13:42:27.360Z,23.17
2023-03-28T13:44:55.860Z,21.93
2023-03-28T13:47:29.327Z,21.49
2023-03-28T13:50:19.507Z,22.69
2023-03-28T13:52:46.114Z,23.01
2023-03-28T13:55:20.688Z,23.15
2023-03-28T13:57:47.960Z,23.82
2023-03-28T14:00:16.918Z,23.61
2023-03-28T14:05:21.523Z,22.90
2023-03-28T14:07:48.530Z,21.98
2023-03-28T14:10:22.489Z,23.32
2023-03-28T14:12:51.309Z,23.58
2023-03-28T14:15:21.805Z,23.48
2023-03-28T14:17:49.994Z,22.94
2023-03-28T14:20:17.953Z,23.38
2023-03-28T14:22:57.436Z,24.92
2023-03-28T14:25:27.402Z,24.39
2023-03-28T14:27:54.867Z,23.64
2023-03-28T14:30:24.373Z,23.21
2023-03-28T14:33:01.741Z,24.29
2023-03-28T14:35:32.521Z,23.92
2023-03-28T14:38:00.983Z,24.18
2023-03-28T14:40:32.068Z,25.37
2023-03-28T14:43:19.900Z,24.73
2023-03-28T14:45:48.833Z,23.94
2023-03-28T14:48:17.981Z,26.37
2023-03-28T14:50:45.870Z,26.81
2023-03-28T14:53:16.965Z,26.44
2023-03-28T14:55:43.916Z,26.70
2023-03-28T14:58:13.204Z,26.08
2023-03-28T15:00:43.962Z,24.51
2023-03-28T15:03:18.699Z,24.23
2023-03-28T15:05:46.592Z,24.74
2023-03-28T15:08:34.594Z,24.64
2023-03-28T15:11:05.460Z,24.85
2023-03-28T15:13:34.438Z,26.51
2023-03-28T15:16:01.469Z,26.79
2023-03-28T15:18:30.511Z,25.63
2023-03-28T15:20:59.206Z,26.31
2023-03-28T15:23:33.635Z,26.69
2023-03-28T15:26:07.516Z,25.95
2023-03-28T15:28:35.120Z,25.61
2023-03-28T15:31:02.787Z,27.83
2023-03-28T15:33:32.164Z,26.07
2023-03-28T15:36:25.420Z,25.64
2023-03-28T15:38:59.165Z,25.67
2023-03-28T15:41:31.751Z,26.32
2023-03-28T15:43:59.546Z,27.86
2023-03-28T15:46:33.056Z,26.82
2023-03-28T15:49:00.755Z,27.74
2023-03-28T15:51:28.119Z,28.36
2023-03-28T15:53:54.930Z,27.85
2023-03-28T15:56:34.046Z,27.48
2023-03-28T15:59:10.847Z,28.61
2023-03-28T16:01:37.339Z,29.30
2023-03-28T16:04:09.931Z,30.82
2023-03-28T16:06:43.893Z,30.02
2023-03-28T16:09:15.591Z,29.65
2023-03-28T16:11:42.487Z,30.08
2023-03-28T16:14:27.564Z,30.46
2023-03-28T16:17:14.444Z,30.76
2023-03-28T16:19:53.289Z,30.37
2023-03-28T16:22:21.060Z,31.86
2023-03-28T16:24:48.533Z,31.48
2023-03-28T16:27:15.305Z,31.58
2023-03-28T16:29:43.227Z,31.16
2023-03-28T16:32:13.753Z,32.28
2023-03-28T16:34:40.606Z,33.63
2023-03-28T16:37:08.908Z,32.40
2023-03-28T16:39:36.056Z,32.25
2023-03-28T16:42:02.604Z,31.43
2023-03-28T16:44:29.094Z,32.03
2023-03-28T16:46:55.689Z,32.99
2023-03-28T16:49:22.216Z,33.37
2023-03-28T16:51:48.783Z,33.28
2023-03-28T16:54:15.468Z,32.86
2023-03-28T16:56:42.511Z,33.59
2023-03-28T16:59:10.097Z,33.66
2023-03-28T17:01:36.910Z,33.29
2023-03-28T17:04:03.894Z,33.87
2023-03-28T17:06:30.871Z,35.12
2023-03-28T17:08:58.705Z,34.40
2023-03-28T17:11:27.021Z,35.55
2023-03-28T17:13:54.588Z,36.03
2023-03-28T17:16:22.744Z,34.57
2023-03-28T17:18:49.858Z,34.92
2023-03-28T17:21:17.464Z,35.05
2023-03-28T17:23:45.465Z,35.49
2023-03-28T17:26:12.190Z,34.94
2023-03-28T17:28:41.916Z,35.57
2023-03-28T17:31:10.093Z,35.36
2023-03-28T17:33:36.779Z,35.61
2023-03-28T17:36:19.688Z,35.25
2023-03-28T17:38:47.905Z,35.16
2023-03-28T17:41:14.360Z,35.51
2023-03-28T17:43:41.420Z,35.43
2023-03-28T17:46:08.586Z,35.90
2023-03-28T17:48:36.243Z,35.75
2023-03-28T17:51:02.701Z,35.74
2023-03-28T17:53:29.540Z,35.68
2023-03-28T17:55:57.328Z,35.42
2023-03-28T17:58:24.699Z,35.99
2023-03-28T18:00:51.204Z,35.40
2023-03-28T18:03:17.785Z,35.11
2023-03-28T18:06:04.829Z,35.17
2023-03-28T18:08:31.480Z,35.85
2023-03-28T18:11:02.368Z,35.72
2023-03-28T18:13:28.951Z,35.58
2023-03-28T18:15:55.467Z,35.63
2023-03-28T18:18:21.935Z,35.12
2023-03-28T18:20:50.842Z,35.58
2023-03-28T18:23:17.449Z,36.11
2023-03-28T18:25:43.955Z,35.58
2023-03-28T18:28:10.906Z,35.17
2023-03-28T18:30:37.751Z,35.95
2023-03-28T18:33:04.408Z,35.92
2023-03-28T18:35:31.323Z,35.09
2023-03-28T18:37:57.765Z,35.39
2023-03-28T18:40:24.513Z,35.24
2023-03-28T18:42:51.193Z,35.58
2023-03-28T18:45:17.845Z,35.37
2023-03-28T18:47:44.466Z,35.44
2023-03-28T18:50:11.031Z,35.98
2023-03-28T18:52:37.538Z,35.33
2023-03-28T18:55:07.437Z,35.71
2023-03-28T18:57:34.937Z,35.93
2023-03-28T19:00:02.008Z,37.60
2023-03-28T19:02:28.954Z,37.17
2023-03-28T19:04:55.523Z,39.55
2023-03-28T19:07:21.996Z,38.84
2023-03-28T19:09:48.831Z,39.09
2023-03-28T19:12:15.370Z,39.77
2023-03-28T19:14:41.904Z,40.82
2023-03-28T19:17:08.400Z,41.10
2023-03-28T19:19:37.425Z,42.04
2023-03-28T19:22:05.765Z,41.04
2023-03-28T19:24:33.545Z,40.69
2023-03-28T19:27:01.007Z,40.81
2023-03-28T19:29:30.043Z,37.29
2023-03-28T19:31:56.780Z,37.26
2023-03-28T19:34:23.256Z,37.31
2023-03-28T19:36:49.769Z,37.63
2023-03-28T19:39:16.341Z,37.19
2023-03-28T19:41:42.819Z,37.97
2023-03-28T19:44:09.408Z,38.30
2023-03-28T19:46:38.047Z,40.00
2023-03-28T19:49:06.369Z,40.47
2023-03-28T19:51:32.892Z,39.73
2023-03-28T19:53:59.376Z,41.04
2023-03-28T19:56:27.016Z,40.69
2023-03-28T19:58:53.515Z,40.79
2023-03-28T20:01:20.124Z,40.25
2023-03-28T20:03:49.510Z,40.57
2023-03-28T20:06:17.015Z,40.24
2023-03-28T20:08:43.564Z,40.92
2023-03-28T20:11:11.945Z,41.23
2023-03-28T20:13:38.650Z,39.10
2023-03-28T20:16:06.422Z,38.06
2023-03-28T20:18:33.068Z,39.31
2023-03-28T20:21:01.079Z,39.53
2023-03-28T20:23:28.912Z,40.06
2023-03-28T20:25:55.844Z,40.91
2023-03-28T20:28:26.238Z,41.87
2023-03-28T20:30:53.770Z,42.04
2023-03-28T20:33:20.731Z,41.29
2023-03-28T20:35:51.608Z,41.53
2023-03-28T20:38:18.188Z,42.35
2023-03-28T20:40:44.654Z,41.53
2023-03-28T20:43:11.799Z,40.74
2023-03-28T20:45:38.835Z,39.84
2023-03-28T20:48:07.128Z,38.28
2023-03-28T20:50:34.168Z,37.93
2023-03-28T20:53:01.985Z,37.63
2023-03-28T20:55:32.068Z,36.98
2023-03-28T20:57:58.652Z,36.38
2023-03-28T21:00:25.426Z,36.61
2023-03-28T21:02:53.666Z,36.28
2023-03-28T21:05:22.038Z,36.37
2023-03-28T21:07:48.965Z,36.55
2023-03-28T21:10:16.434Z,36.60
2023-03-28T21:12:47.365Z,36.81
2023-03-28T21:15:14.414Z,36.22
2023-03-28T21:17:41.468Z,35.92
2023-03-28T21:20:10.166Z,36.05
2023-03-28T21:22:38.032Z,35.16
2023-03-28T21:25:08.614Z,35.95
2023-03-28T21:27:36.796Z,36.12
2023-03-28T21:30:07.584Z,36.23
2023-03-28T21:32:34.816Z,36.56
2023-03-28T21:35:02.360Z,35.68
2023-03-28T21:37:28.972Z,35.92
2023-03-28T21:39:55.486Z,36.03
2023-03-28T21:42:22.252Z,35.91
2023-03-28T21:44:48.887Z,36.26
2023-03-28T21:47:15.410Z,36.09
2023-03-28T21:49:43.299Z,36.86
2023-03-28T21:52:09.719Z,37.04
2023-03-28T21:54:36.205Z,37.22
2023-03-28T21:57:02.794Z,37.69
2023-03-28T21:59:29.310Z,37.71
2023-03-28T22:01:55.829Z,38.15
2023-03-28T22:04:22.450Z,38.00
2023-03-28T22:06:48.867Z,38.36
2023-03-28T22:09:15.345Z,38.49
2023-03-28T22:11:42.126Z,38.80
2023-03-28T22:14:09.607Z,39.01
2023-03-28T22:16:37.515Z,39.17
2023-03-28T22:19:04.612Z,40.00
2023-03-28T22:21:31.437Z,40.31
2023-03-28T22:24:04.331Z,41.06
2023-03-28T22:26:30.995Z,41.68
2023-03-28T22:28:58.453Z,42.64
2023-03-28T22:31:25.977Z,42.36
2023-03-28T22:33:57.634Z,41.89
2023-03-28T22:36:24.432Z,41.74
2023-03-28T22:38:51.875Z,41.52
2023-03-28T22:41:18.370Z,41.91
2023-03-28T22:43:45.054Z,42.56
2023-03-28T22:46:16.353Z,43.39
2023-03-28T22:48:43.765Z,43.91
2023-03-28T22:51:15.668Z,43.12
2023-03-28T22:53:42.429Z,43.88
2023-03-28T22:56:09.012Z,44.31
2023-03-28T22:58:35.947Z,43.81
2023-03-28T23:01:03.837Z,43.69
2023-03-28T23:03:31.075Z,42.92
2023-03-28T23:06:01.295Z,43.58
2023-03-28T23:08:28.200Z,44.86
2023-03-28T23:10:54.647Z,45.56
2023-03-28T23:13:21.247Z,45.20
2023-03-28T23:15:47.893Z,43.01
2023-03-28T23:18:14.731Z,43.08
2023-03-28T23:20:41.253Z,42.79
2023-03-28T23:23:08.837Z,43.24
2023-03-28T23:25:35.537Z,44.36
2023-03-28T23:28:01.996Z,45.44
2023-03-28T23:30:28.507Z,45.69
2023-03-28T23:32:54.986Z,44.45
2023-03-28T23:35:21.548Z,44.54
2023-03-28T23:37:48.015Z,45.94
2023-03-28T23:40:15.321Z,46.23
2023-03-28T23:42:43.708Z,47.52
2023-03-28T23:45:11.416Z,47.38
2023-03-28T23:47:37.997Z,48.29
2023-03-28T23:50:05.240Z,47.82
2023-03-28T23:52:31.750Z,50.28
2023-03-28T23:54:58.283Z,50.76
2023-03-28T23:57:25.278Z,50.89
2023-03-28T23:59:51.893Z,49.73
